createdAt,value
2022-09-17T00:02:16.419Z,19.27
2022-09-17T00:04:43.090Z,12.73
2022-09-17T00:07:09.855Z,13.63
2022-09-17T00:09:36.575Z,11.48
2022-09-17T00:12:03.281Z,19.83
2022-09-17T00:14:29.884Z,16.92
2022-09-17T00:17:01.200Z,18.52
2022-09-17T00:19:28.423Z,15.15
2022-09-17T00:21:54.990Z,12.93
2022-09-17T00:24:21.792Z,12.32
2022-09-17T00:26:48.641Z,14.15
2022-09-17T00:29:15.243Z,21.33
2022-09-17T00:31:41.988Z,12.85
2022-09-17T00:34:08.786Z,14.45
2022-09-17T00:36:36.494Z,10.38
2022-09-17T00:39:04.297Z,20.40
2022-09-17T00:41:32.166Z,12.50
2022-09-17T00:44:00.741Z,11.60
2022-09-17T00:46:36.190Z,15.70
2022-09-17T00:49:11.469Z,16.10
2022-09-17T00:51:41.711Z,15.02
2022-09-17T00:54:09.779Z,15.55
2022-09-17T00:56:38.824Z,13.65
2022-09-17T00:59:05.395Z,14.82
2022-09-17T01:01:32.028Z,15.05
2022-09-17T01:03:58.748Z,13.45
2022-09-17T01:06:36.182Z,14.15
2022-09-17T01:09:17.112Z,15.07
2022-09-17T01:12:28.676Z,18.73
2022-09-17T01:15:20.107Z,14.70
2022-09-17T01:18:05.041Z,17.00
2022-09-17T01:21:08.013Z,18.48
2022-09-17T01:23:52.005Z,19.40
2022-09-17T01:26:35.122Z,21.58
2022-09-17T01:29:06.394Z,18.83
2022-09-17T01:31:51.509Z,20.58
2022-09-17T01:34:32.493Z,22.27
2022-09-17T01:37:16.229Z,22.98
2022-09-17T01:40:07.698Z,21.42
2022-09-17T01:42:47.356Z,21.55
2022-09-17T01:45:19.624Z,18.58
2022-09-17T01:47:49.266Z,19.35
2022-09-17T01:50:24.364Z,20.88
2022-09-17T01:52:52.319Z,26.55
2022-09-17T01:55:18.876Z,26.05
2022-09-17T01:57:57.899Z,20.02
2022-09-17T02:00:24.936Z,21.85
2022-09-17T02:03:08.793Z,24.25
2022-09-17T02:05:41.677Z,23.73
2022-09-17T02:08:16.391Z,30.65
2022-09-17T02:10:45.868Z,22.90
2022-09-17T02:13:22.265Z,24.75
2022-09-17T02:15:57.729Z,25.17
2022-09-17T02:18:26.623Z,26.70
2022-09-17T02:21:02.456Z,20.90
2022-09-17T02:23:31.438Z,22.50
2022-09-17T02:26:00.789Z,22.20
2022-09-17T02:28:37.085Z,33.17
2022-09-17T02:31:03.939Z,22.92
2022-09-17T02:33:30.720Z,29.73
2022-09-17T02:35:57.335Z,25.58
2022-09-17T02:38:25.726Z,25.75
2022-09-17T02:40:56.180Z,29.55
2022-09-17T02:43:40.884Z,27.50
2022-09-17T02:46:31.535Z,28.63
2022-09-17T02:51:33.921Z,24.17
2022-09-17T02:54:30.281Z,23.33
2022-09-17T02:57:15.445Z,25.70
2022-09-17T03:00:05.360Z,22.92
2022-09-17T03:02:37.468Z,26.83
2022-09-17T03:05:04.914Z,23.92
2022-09-17T03:07:32.573Z,22.67
2022-09-17T03:09:59.554Z,21.27
2022-09-17T03:12:26.697Z,22.05
2022-09-17T03:14:53.308Z,21.27
2022-09-17T03:17:19.849Z,20.17
2022-09-17T03:19:46.409Z,21.83
2022-09-17T03:22:13.029Z,23.77
2022-09-17T03:24:39.578Z,24.50
2022-09-17T03:27:06.145Z,22.58
2022-09-17T03:29:32.753Z,21.23
2022-09-17T03:32:00.248Z,23.35
2022-09-17T03:34:26.804Z,23.67
2022-09-17T03:36:53.538Z,22.70
2022-09-17T03:39:20.100Z,25.17
2022-09-17T03:41:46.649Z,21.52
2022-09-17T03:44:13.279Z,24.50
2022-09-17T03:46:39.883Z,23.25
2022-09-17T03:49:06.463Z,22.52
2022-09-17T03:51:33.125Z,22.20
2022-09-17T03:54:00.232Z,22.60
2022-09-17T03:56:26.945Z,25.90
2022-09-17T03:58:58.213Z,24.95
2022-09-17T04:01:24.924Z,24.38
2022-09-17T04:03:51.562Z,29.90
2022-09-17T04:06:18.124Z,24.13
2022-09-17T04:08:44.760Z,25.35
2022-09-17T04:11:11.550Z,28.17
2022-09-17T04:13:38.201Z,34.65
2022-09-17T04:16:04.857Z,30.38
2022-09-17T04:18:31.540Z,27.95
2022-09-17T04:20:58.261Z,36.95
2022-09-17T04:23:24.825Z,29.13
2022-09-17T04:25:51.396Z,25.88
2022-09-17T04:28:17.951Z,26.40
2022-09-17T04:30:44.521Z,31.63
2022-09-17T04:33:11.187Z,29.85
2022-09-17T04:35:37.821Z,25.27
2022-09-17T04:38:04.425Z,25.73
2022-09-17T04:40:31.126Z,30.48
2022-09-17T04:43:03.085Z,28.17
2022-09-17T04:45:30.594Z,24.27
2022-09-17T04:47:57.417Z,25.65
2022-09-17T04:50:23.959Z,27.15
2022-09-17T04:52:50.520Z,24.67
2022-09-17T04:55:17.175Z,26.35
2022-09-17T04:57:50.910Z,24.92
2022-09-17T05:00:18.365Z,27.33
2022-09-17T05:02:50.616Z,24.17
2022-09-17T05:05:17.689Z,26.98
2022-09-17T05:07:44.373Z,30.63
2022-09-17T05:10:11.359Z,21.52
2022-09-17T05:12:38.093Z,21.30
2022-09-17T05:15:06.003Z,26.48
2022-09-17T05:17:32.820Z,19.88
2022-09-17T05:19:59.417Z,20.13
2022-09-17T05:22:25.985Z,25.70
2022-09-17T05:24:52.545Z,26.70
2022-09-17T05:27:19.192Z,27.83
2022-09-17T05:29:45.773Z,20.33
2022-09-17T05:32:12.366Z,26.50
2022-09-17T05:34:38.995Z,27.05
2022-09-17T05:37:05.711Z,27.17
2022-09-17T05:39:32.977Z,27.63
2022-09-17T05:41:59.534Z,26.02
2022-09-17T05:44:26.134Z,28.80
2022-09-17T05:46:53.140Z,27.45
2022-09-17T05:49:19.795Z,30.52
2022-09-17T05:51:46.354Z,43.33
2022-09-17T05:54:12.943Z,35.05
2022-09-17T05:56:39.517Z,35.72
2022-09-17T05:59:06.108Z,24.67
2022-09-17T06:01:32.742Z,32.13
2022-09-17T06:03:59.338Z,33.08
2022-09-17T06:06:29.340Z,28.13
2022-09-17T06:08:55.897Z,30.27
2022-09-17T06:11:22.501Z,26.90
2022-09-17T06:13:53.111Z,32.50
2022-09-17T06:18:47.493Z,27.23
2022-09-17T06:21:14.403Z,32.10
2022-09-17T06:23:43.327Z,30.55
2022-09-17T06:26:10.067Z,29.27
2022-09-17T06:28:41.279Z,27.67
2022-09-17T06:31:08.843Z,23.58
2022-09-17T06:33:36.423Z,21.23
2022-09-17T06:36:08.518Z,20.88
2022-09-17T06:38:37.759Z,25.98
2022-09-17T06:41:04.707Z,21.65
2022-09-17T06:43:31.483Z,24.63
2022-09-17T06:45:59.617Z,16.38
2022-09-17T06:48:27.302Z,21.55
2022-09-17T06:50:54.330Z,15.88
2022-09-17T06:53:21.899Z,14.25
2022-09-17T06:55:48.562Z,14.40
2022-09-17T06:58:15.165Z,9.18
2022-09-17T07:00:41.754Z,13.85
2022-09-17T07:03:09.245Z,11.30
2022-09-17T07:05:35.867Z,17.27
2022-09-17T07:08:05.757Z,13.32
2022-09-17T07:10:32.498Z,15.60
2022-09-17T07:12:59.354Z,15.82
2022-09-17T07:15:25.969Z,13.60
2022-09-17T07:17:53.199Z,19.67
2022-09-17T07:20:19.884Z,15.77
2022-09-17T07:22:46.621Z,13.45
2022-09-17T07:25:13.274Z,20.52
2022-09-17T07:27:39.896Z,17.88
2022-09-17T07:30:07.065Z,14.75
2022-09-17T07:32:33.616Z,14.60
2022-09-17T07:35:09.285Z,16.98
2022-09-17T07:37:35.882Z,14.15
2022-09-17T07:40:02.518Z,13.80
2022-09-17T07:42:29.101Z,17.23
2022-09-17T07:44:59.825Z,16.63
2022-09-17T07:47:28.393Z,13.27
2022-09-17T07:49:54.964Z,10.02
2022-09-17T07:52:21.535Z,14.07
2022-09-17T07:54:52.581Z,16.70
2022-09-17T07:57:19.151Z,13.10
2022-09-17T07:59:45.761Z,14.35
2022-09-17T08:02:13.267Z,13.90
2022-09-17T08:04:42.506Z,13.25
2022-09-17T08:07:11.684Z,11.50
2022-09-17T08:09:38.349Z,9.68
2022-09-17T08:12:05.218Z,10.90
2022-09-17T08:14:31.842Z,12.43
2022-09-17T08:16:58.436Z,9.43
2022-09-17T08:19:25.410Z,9.75
2022-09-17T08:21:52.146Z,12.88
2022-09-17T08:24:18.738Z,10.05
2022-09-17T08:26:45.291Z,12.98
2022-09-17T08:29:11.870Z,12.23
2022-09-17T08:31:38.573Z,13.45
2022-09-17T08:34:09.467Z,9.35
2022-09-17T08:36:36.762Z,8.20
2022-09-17T08:39:03.493Z,15.60
2022-09-17T08:41:58.048Z,7.90
2022-09-17T08:44:39.815Z,8.55
2022-09-17T08:47:38.811Z,6.68
2022-09-17T08:50:14.846Z,7.80
2022-09-17T08:53:06.453Z,7.25
2022-09-17T08:55:44.538Z,11.05
2022-09-17T08:58:23.248Z,8.02
2022-09-17T09:01:43.406Z,7.05
2022-09-17T09:04:36.383Z,8.90
2022-09-17T09:07:08.666Z,8.98
2022-09-17T09:09:38.221Z,10.55
2022-09-17T09:12:07.770Z,10.52
2022-09-17T09:14:49.242Z,5.60
2022-09-17T09:17:15.967Z,6.45
2022-09-17T09:19:44.219Z,10.45
2022-09-17T09:22:30.579Z,8.90
2022-09-17T09:25:04.502Z,8.95
2022-09-17T09:27:39.953Z,9.57
2022-09-17T09:30:11.016Z,9.57
2022-09-17T09:33:00.766Z,9.63
2022-09-17T09:35:31.569Z,8.37
2022-09-17T09:38:09.073Z,6.50
2022-09-17T09:40:49.126Z,5.68
2022-09-17T09:44:03.363Z,6.60
2022-09-17T09:46:52.201Z,9.82
2022-09-17T09:49:43.682Z,7.00
2022-09-17T09:52:13.673Z,5.32
2022-09-17T09:54:52.253Z,8.25
2022-09-17T09:57:22.901Z,4.95
2022-09-17T09:59:49.467Z,7.38
2022-09-17T10:02:16.805Z,7.10
2022-09-17T10:04:43.482Z,7.60
2022-09-17T10:07:11.258Z,7.28
2022-09-17T10:09:39.474Z,8.00
2022-09-17T10:12:09.058Z,5.40
2022-09-17T10:14:36.680Z,7.70
2022-09-17T10:17:22.242Z,9.52
2022-09-17T10:20:12.053Z,8.65
2022-09-17T10:22:45.749Z,5.95
2022-09-17T10:25:30.593Z,5.50
2022-09-17T10:27:58.809Z,8.65
2022-09-17T10:30:26.003Z,3.00
2022-09-17T10:33:30.606Z,5.53
2022-09-17T10:36:03.318Z,8.95
2022-09-17T10:38:56.380Z,3.67
2022-09-17T10:41:24.698Z,7.70
2022-09-17T10:43:51.404Z,5.05
2022-09-17T10:46:25.353Z,5.88
2022-09-17T10:49:10.754Z,6.72
2022-09-17T10:51:37.455Z,8.20
2022-09-17T10:54:19.236Z,8.40
2022-09-17T10:56:49.711Z,6.82
2022-09-17T10:59:38.196Z,5.20
2022-09-17T11:02:25.604Z,8.70
2022-09-17T11:05:00.126Z,7.32
2022-09-17T11:07:39.793Z,5.40
2022-09-17T11:10:12.935Z,4.60
2022-09-17T11:12:59.552Z,6.07
2022-09-17T11:16:03.942Z,4.85
2022-09-17T11:18:45.361Z,4.68
2022-09-17T11:21:32.271Z,3.85
2022-09-17T11:24:21.706Z,5.45
2022-09-17T11:27:03.705Z,5.23
2022-09-17T11:29:37.261Z,4.68
2022-09-17T11:32:49.296Z,3.30
2022-09-17T11:35:19.505Z,3.47
2022-09-17T11:38:00.138Z,4.00
2022-09-17T11:41:10.636Z,3.78
2022-09-17T11:44:04.566Z,7.22
2022-09-17T11:46:53.155Z,6.00
2022-09-17T11:49:28.418Z,4.35
2022-09-17T11:51:57.865Z,4.60
2022-09-17T11:54:33.853Z,11.47
2022-09-17T11:57:21.129Z,7.43
2022-09-17T12:00:05.908Z,5.65
2022-09-17T12:03:18.787Z,4.70
2022-09-17T12:05:51.693Z,4.38
2022-09-17T12:08:19.679Z,7.95
2022-09-17T12:11:04.791Z,4.18
2022-09-17T12:13:44.927Z,7.43
2022-09-17T12:16:14.759Z,4.43
2022-09-17T12:19:01.092Z,3.63
2022-09-17T12:21:52.693Z,6.03
2022-09-17T12:24:32.249Z,4.95
2022-09-17T12:27:24.258Z,6.40
2022-09-17T12:30:11.869Z,4.78
2022-09-17T12:32:57.431Z,4.88
2022-09-17T12:35:46.665Z,2.97
2022-09-17T12:38:24.704Z,4.15
2022-09-17T12:40:57.406Z,2.70
2022-09-17T12:43:35.317Z,4.70
2022-09-17T12:46:24.964Z,4.10
2022-09-17T12:49:07.310Z,4.57
2022-09-17T12:52:03.680Z,2.90
2022-09-17T12:54:48.777Z,5.32
2022-09-17T12:57:51.611Z,4.75
2022-09-17T13:00:18.223Z,5.40
2022-09-17T13:03:08.062Z,2.88
2022-09-17T13:06:14.991Z,6.28
2022-09-17T13:08:46.035Z,4.22
2022-09-17T13:11:37.093Z,6.78
2022-09-17T13:14:19.260Z,3.00
2022-09-17T13:16:52.498Z,6.25
2022-09-17T13:19:44.484Z,4.28
2022-09-17T13:22:17.291Z,2.47
2022-09-17T13:24:47.181Z,2.97
2022-09-17T13:27:22.500Z,3.53
2022-09-17T13:29:55.314Z,3.38
2022-09-17T13:32:33.873Z,3.10
2022-09-17T13:35:09.482Z,5.07
2022-09-17T13:37:37.475Z,6.20
2022-09-17T13:40:04.714Z,2.83
2022-09-17T13:42:33.608Z,1.58
2022-09-17T13:45:13.199Z,7.13
2022-09-17T13:47:50.664Z,3.72
2022-09-17T13:50:42.021Z,6.43
2022-09-17T13:53:14.598Z,5.82
2022-09-17T13:55:48.027Z,5.53
2022-09-17T13:58:20.744Z,3.65
2022-09-17T14:01:01.294Z,3.10
2022-09-17T14:05:58.824Z,4.32
2022-09-17T14:08:30.388Z,8.20
2022-09-17T14:10:58.792Z,4.85
2022-09-17T14:13:35.749Z,2.13
2022-09-17T14:16:02.479Z,3.20
2022-09-17T14:18:29.050Z,1.48
2022-09-17T14:21:05.606Z,5.68
2022-09-17T14:23:43.044Z,4.00
2022-09-17T14:26:14.141Z,3.92
2022-09-17T14:28:43.791Z,4.25
2022-09-17T14:31:17.552Z,3.22
2022-09-17T14:33:44.506Z,2.70
2022-09-17T14:36:14.575Z,2.03
2022-09-17T14:38:44.688Z,3.65
2022-09-17T14:41:11.354Z,2.88
2022-09-17T14:44:02.526Z,2.80
2022-09-17T14:46:40.600Z,2.50
2022-09-17T14:49:26.915Z,3.70
2022-09-17T14:51:54.329Z,2.35
2022-09-17T14:54:24.993Z,1.13
2022-09-17T14:56:58.687Z,1.60
2022-09-17T14:59:50.511Z,1.02
2022-09-17T15:02:31.769Z,2.17
2022-09-17T15:04:58.541Z,1.98
2022-09-17T15:07:25.293Z,2.33
2022-09-17T15:10:04.292Z,1.98
2022-09-17T15:12:30.872Z,1.73
2022-09-17T15:14:57.716Z,2.08
2022-09-17T15:17:24.432Z,0.85
2022-09-17T15:19:54.322Z,4.30
2022-09-17T15:22:22.171Z,6.70
2022-09-17T15:25:09.852Z,2.95
2022-09-17T15:27:38.094Z,1.95
2022-09-17T15:30:20.391Z,3.70
2022-09-17T15:32:51.874Z,4.32
2022-09-17T15:35:24.017Z,2.47
2022-09-17T15:40:39.763Z,6.10
2022-09-17T15:43:33.049Z,2.50
2022-09-17T15:46:24.596Z,2.72
2022-09-17T15:48:51.242Z,2.55
2022-09-17T15:51:28.688Z,1.92
2022-09-17T15:54:00.159Z,1.70
2022-09-17T15:56:28.281Z,2.55
2022-09-17T15:59:03.242Z,2.58
2022-09-17T16:01:29.894Z,2.47
2022-09-17T16:04:08.076Z,2.75
2022-09-17T16:06:36.197Z,3.17
2022-09-17T16:09:03.037Z,1.90
2022-09-17T16:11:32.854Z,5.07
2022-09-17T16:14:00.338Z,4.25
2022-09-17T16:16:34.245Z,2.92
2022-09-17T16:19:01.124Z,2.70
2022-09-17T16:21:28.322Z,4.40
2022-09-17T16:23:55.058Z,3.20
2022-09-17T16:26:28.045Z,2.95
2022-09-17T16:28:55.096Z,3.15
2022-09-17T16:31:21.721Z,2.90
2022-09-17T16:33:48.410Z,2.78
2022-09-17T16:36:18.066Z,5.47
2022-09-17T16:38:44.666Z,5.13
2022-09-17T16:41:11.244Z,3.50
2022-09-17T16:43:38.285Z,3.15
2022-09-17T16:46:06.785Z,3.15
2022-09-17T16:48:33.588Z,2.75
2022-09-17T16:51:01.493Z,2.05
2022-09-17T16:53:28.079Z,1.65
2022-09-17T16:55:54.660Z,4.32
2022-09-17T16:58:21.212Z,3.28
2022-09-17T17:00:47.866Z,3.25
2022-09-17T17:03:14.845Z,4.03
2022-09-17T17:05:41.523Z,3.80
2022-09-17T17:08:08.908Z,3.00
2022-09-17T17:10:35.982Z,3.00
2022-09-17T17:13:08.354Z,2.78
2022-09-17T17:15:34.926Z,5.60
2022-09-17T17:18:01.598Z,3.30
2022-09-17T17:20:28.255Z,3.13
2022-09-17T17:22:55.172Z,3.13
2022-09-17T17:25:23.771Z,2.65
2022-09-17T17:27:50.576Z,3.95
2022-09-17T17:30:17.451Z,5.90
2022-09-17T17:32:44.926Z,6.35
2022-09-17T17:35:11.609Z,5.50
2022-09-17T17:37:38.183Z,5.75
2022-09-17T17:40:07.138Z,2.63
2022-09-17T17:42:37.975Z,3.03
2022-09-17T17:45:05.665Z,4.75
2022-09-17T17:47:32.296Z,3.60
2022-09-17T17:49:59.012Z,4.90
2022-09-17T17:52:25.715Z,3.75
2022-09-17T17:54:52.763Z,5.85
2022-09-17T17:57:19.329Z,3.22
2022-09-17T17:59:45.956Z,3.83
2022-09-17T18:02:12.620Z,6.82
2022-09-17T18:04:39.252Z,6.90
2022-09-17T18:07:06.094Z,5.20
2022-09-17T18:09:33.357Z,3.55
2022-09-17T18:11:59.944Z,4.32
2022-09-17T18:14:26.497Z,2.63
2022-09-17T18:16:53.058Z,5.40
2022-09-17T18:19:20.052Z,5.95
2022-09-17T18:21:46.604Z,5.15
2022-09-17T18:24:13.204Z,30.52
2022-09-17T18:26:39.756Z,6.28
2022-09-17T18:29:08.240Z,5.25
2022-09-17T18:31:35.335Z,5.85
2022-09-17T18:34:12.580Z,5.68
2022-09-17T18:36:39.509Z,5.55
2022-09-17T18:39:44.482Z,5.43
2022-09-17T18:41:53.544Z,7.53
2022-09-17T18:44:21.620Z,2.85
2022-09-17T18:46:49.803Z,5.53
2022-09-17T18:49:16.450Z,4.10
2022-09-17T18:51:43.021Z,5.45
2022-09-17T18:54:10.477Z,5.85
2022-09-17T18:56:37.151Z,4.95
2022-09-17T18:59:08.003Z,6.95
2022-09-17T19:01:35.380Z,4.28
2022-09-17T19:04:02.414Z,5.28
2022-09-17T19:06:29.376Z,6.97
2022-09-17T19:08:59.739Z,8.35
2022-09-17T19:11:26.502Z,4.18
2022-09-17T19:13:53.097Z,5.63
2022-09-17T19:16:19.795Z,4.63
2022-09-17T19:18:46.412Z,7.05
2022-09-17T19:21:16.868Z,4.80
2022-09-17T19:23:44.531Z,4.30
2022-09-17T19:26:15.649Z,3.40
2022-09-17T19:28:42.223Z,9.05
2022-09-17T19:31:10.425Z,5.88
2022-09-17T19:33:37.226Z,5.75
2022-09-17T19:36:05.559Z,5.88
2022-09-17T19:38:32.342Z,4.57
2022-09-17T19:40:59.867Z,42.05
2022-09-17T19:43:27.045Z,3.72
2022-09-17T19:46:00.470Z,3.63
2022-09-17T19:48:27.087Z,5.00
2022-09-17T19:50:55.067Z,5.20
2022-09-17T19:53:21.690Z,5.03
2022-09-17T19:55:48.318Z,5.95
2022-09-17T19:58:15.077Z,3.47
2022-09-17T20:00:41.718Z,9.07
2022-09-17T20:03:08.897Z,4.72
2022-09-17T20:05:35.902Z,9.90
2022-09-17T20:08:03.477Z,13.13
2022-09-17T20:10:30.187Z,5.32
2022-09-17T20:12:57.506Z,7.82
2022-09-17T20:15:24.123Z,7.72
2022-09-17T20:17:50.811Z,7.40
2022-09-17T20:20:17.648Z,6.93
2022-09-17T20:22:44.211Z,5.47
2022-09-17T20:25:10.788Z,4.90
2022-09-17T20:27:37.401Z,7.30
2022-09-17T20:30:04.169Z,15.95
2022-09-17T20:32:30.754Z,5.20
2022-09-17T20:34:57.392Z,5.78
2022-09-17T20:37:55.267Z,6.05
2022-09-17T20:40:10.731Z,10.32
2022-09-17T20:42:37.306Z,6.53
2022-09-17T20:45:04.931Z,5.50
2022-09-17T20:47:31.530Z,7.25
2022-09-17T20:49:58.146Z,35.55
2022-09-17T20:52:24.715Z,8.52
2022-09-17T20:54:51.266Z,7.97
2022-09-17T20:57:17.917Z,7.00
2022-09-17T20:59:55.479Z,6.00
2022-09-17T21:02:22.260Z,5.50
2022-09-17T21:04:50.064Z,8.73
2022-09-17T21:07:16.812Z,6.43
2022-09-17T21:09:43.399Z,8.48
2022-09-17T21:12:10.106Z,7.88
2022-09-17T21:14:36.754Z,14.52
2022-09-17T21:17:03.463Z,11.65
2022-09-17T21:19:30.074Z,8.60
2022-09-17T21:21:57.324Z,13.07
2022-09-17T21:24:24.073Z,12.60
2022-09-17T21:26:51.766Z,9.20
2022-09-17T21:29:18.489Z,8.23
2022-09-17T21:31:45.152Z,6.47
2022-09-17T21:34:13.097Z,9.60
2022-09-17T21:36:40.767Z,11.80
2022-09-17T21:39:10.832Z,6.70
2022-09-17T21:41:42.145Z,7.05
2022-09-17T21:44:12.471Z,8.15
2022-09-17T21:46:39.290Z,15.37
2022-09-17T21:49:06.032Z,10.45
2022-09-17T21:51:37.590Z,7.22
2022-09-17T21:54:15.753Z,10.75
2022-09-17T21:56:42.790Z,16.35
2022-09-17T21:59:11.374Z,9.40
2022-09-17T22:01:43.810Z,11.65
2022-09-17T22:04:13.015Z,14.18
2022-09-17T22:06:39.944Z,8.00
2022-09-17T22:09:07.474Z,15.07
2022-09-17T22:11:35.867Z,9.05
2022-09-17T22:14:09.042Z,10.50
2022-09-17T22:16:37.181Z,10.43
2022-09-17T22:19:04.148Z,12.60
2022-09-17T22:21:32.077Z,12.07
2022-09-17T22:24:00.489Z,8.65
2022-09-17T22:26:29.459Z,14.40
2022-09-17T22:28:56.206Z,11.30
2022-09-17T22:31:22.837Z,12.15
2022-09-17T22:33:49.628Z,7.93
2022-09-17T22:36:20.870Z,11.85
2022-09-17T22:38:50.081Z,14.40
2022-09-17T22:41:18.188Z,11.55
2022-09-17T22:43:44.906Z,9.02
2022-09-17T22:46:20.112Z,12.57
2022-09-17T22:48:46.972Z,15.43
2022-09-17T22:51:13.632Z,11.88
2022-09-17T22:53:40.519Z,8.73
2022-09-17T22:56:08.300Z,12.88
2022-09-17T22:58:35.049Z,11.93
2022-09-17T23:01:06.435Z,9.60
2022-09-17T23:03:33.199Z,17.50
2022-09-17T23:06:04.791Z,19.20
2022-09-17T23:08:31.980Z,10.90
2022-09-17T23:10:59.850Z,13.80
2022-09-17T23:13:27.147Z,7.30
2022-09-17T23:15:53.733Z,11.98
2022-09-17T23:18:20.410Z,11.13
2022-09-17T23:21:00.218Z,17.48
2022-09-17T23:23:27.169Z,11.60
2022-09-17T23:25:54.627Z,12.68
2022-09-17T23:28:21.841Z,11.85
2022-09-17T23:30:48.459Z,15.73
2022-09-17T23:33:15.208Z,12.23
2022-09-17T23:35:41.822Z,13.02
2022-09-17T23:38:08.434Z,15.73
2022-09-17T23:40:35.180Z,13.27
2022-09-17T23:43:01.841Z,16.00
2022-09-17T23:45:28.409Z,13.13
2022-09-17T23:47:54.983Z,21.98
2022-09-17T23:50:21.545Z,18.70
2022-09-17T23:52:48.162Z,12.32
2022-09-17T23:55:14.722Z,11.18
2022-09-17T23:57:41.343Z,18.85
